< < Back
Terminal Aerodrome Forecast


Current Version              Previous Versions:   1  2  3  4  5  6  7  8  9  

Terminal Aerodrome Forecast

808
FTUS42 KTAE 030917 AAA
TAFDHN
TAF AMD
KDHN 030917Z 0309/0406 24006KT 6SM BR BKN004 OVC008
      TEMPO 0310/0314 2SM BR SCT004 BKN008
     FM031500 24007KT P6SM BKN030
     FM031800 26010KT 5SM TSRA BKN035CB
     FM040000 28006KT P6SM BKN250=

Latest METAR

099
SAUS70 KWBC 031400 RRF
MTRDHN
METAR KDHN 031353Z 32005KT 10SM OVC011 22/19 A2998 RMK AO2 SLP148
T02220189


USA.gov is the U.S. government's official web portal to all federal, state and local government web resources and services.